Time;durP1;ratioP1;P1;durP2;ratioP2;P2;SDS_P1;SDS_P2;PMS_P1;PMS_P2;Temp;Humidity;BMP_temperature;BMP_pressure;BME280_temperature;BME280_humidity;BME280_pressure;Samples;Min_cycle;Max_cycle;Signal;HPM_P1;HPM_P2
2022/09/02 00:02:12;;;;;;;7.30;6.43;;;24.50;45.20;;;;;;5130776;27;45428;-70
2022/09/02 00:04:39;;;;;;;8.25;6.50;;;24.50;45.80;;;;;;5131229;27;45221;-70
2022/09/02 00:07:06;;;;;;;8.55;6.55;;;24.50;45.20;;;;;;5130663;27;46362;-71
2022/09/02 00:09:33;;;;;;;7.75;6.63;;;24.50;45.20;;;;;;5130312;27;45363;-70
2022/09/02 00:12:00;;;;;;;8.50;6.65;;;24.50;45.20;;;;;;5130585;27;45295;-70
2022/09/02 00:14:28;;;;;;;8.00;6.30;;;24.40;45.20;;;;;;5130455;27;45281;-70
2022/09/02 00:16:55;;;;;;;7.30;6.00;;;24.40;46.10;;;;;;5130244;27;45162;-70
2022/09/02 00:19:24;;;;;;;7.47;5.72;;;24.40;46.00;;;;;;5135089;27;45491;-70
2022/09/02 00:21:51;;;;;;;7.05;5.80;;;24.40;45.30;;;;;;5171375;27;45299;-70
2022/09/02 00:24:18;;;;;;;7.55;5.85;;;24.40;45.90;;;;;;5169457;27;45124;-70
2022/09/02 00:26:45;;;;;;;7.72;5.72;;;24.40;45.30;;;;;;5148742;27;45287;-70
2022/09/02 00:29:13;;;;;;;5.80;5.03;;;24.40;45.20;;;;;;5130131;27;45192;-70
2022/09/02 00:31:41;;;;;;;5.88;5.00;;;24.40;45.20;;;;;;5130158;27;45298;-70
2022/09/02 00:34:08;;;;;;;6.80;5.50;;;24.40;45.20;;;;;;5130347;27;45303;-71
2022/09/02 00:36:36;;;;;;;5.95;5.15;;;24.30;45.30;;;;;;5129918;27;46291;-70
2022/09/02 00:39:03;;;;;;;5.93;5.13;;;24.30;45.30;;;;;;5129651;27;45251;-71
2022/09/02 00:41:31;;;;;;;6.30;5.03;;;24.30;45.40;;;;;;5129030;27;45221;-70
2022/09/02 00:43:59;;;;;;;5.82;4.82;;;24.30;45.30;;;;;;5129875;27;45588;-71
2022/09/02 00:46:27;;;;;;;6.57;4.80;;;24.30;45.40;;;;;;5129240;27;46417;-70
2022/09/02 00:48:56;;;;;;;6.03;4.72;;;24.30;45.80;;;;;;5129603;27;45318;-70
2022/09/02 00:51:23;;;;;;;4.97;4.32;;;24.30;45.30;;;;;;5129928;27;45216;-69
2022/09/02 00:53:51;;;;;;;5.65;4.55;;;24.30;45.20;;;;;;5130074;27;45235;-70
2022/09/02 00:56:20;;;;;;;6.10;4.90;;;24.30;45.30;;;;;;5129633;27;46431;-69
2022/09/02 00:58:47;;;;;;;5.40;4.68;;;24.30;45.50;;;;;;5129612;27;45458;-70
2022/09/02 01:01:14;;;;;;;5.75;4.32;;;24.30;45.30;;;;;;5129809;27;45179;-70
2022/09/02 01:03:41;;;;;;;4.93;4.40;;;24.30;45.30;;;;;;5129791;27;45399;-69
2022/09/02 01:06:07;;;;;;;9.40;4.65;;;24.20;45.30;;;;;;5129542;27;46494;-71
2022/09/02 01:08:35;;;;;;;4.70;4.03;;;24.20;45.30;;;;;;5129484;27;45423;-70
2022/09/02 01:11:04;;;;;;;4.50;4.07;;;24.20;45.20;;;;;;5129598;27;45235;-70
2022/09/02 01:13:35;;;;;;;4.85;3.88;;;24.20;45.10;;;;;;5129528;27;45605;-70
2022/09/02 01:16:04;;;;;;;5.85;3.65;;;24.20;45.30;;;;;;5129140;27;46411;-70
2022/09/02 01:18:31;;;;;;;4.10;3.58;;;24.10;45.30;;;;;;5129186;27;45280;-69
2022/09/02 01:20:58;;;;;;;3.92;3.53;;;24.10;45.30;;;;;;5158386;27;45222;-69
2022/09/02 01:23:26;;;;;;;6.00;4.18;;;24.10;45.40;;;;;;5171568;27;45509;-71
2022/09/02 01:25:53;;;;;;;4.95;4.00;;;24.10;45.40;;;;;;5159839;27;46809;-70
2022/09/02 01:28:20;;;;;;;4.20;3.60;;;24.10;45.40;;;;;;5129144;27;45182;-70
2022/09/02 01:30:49;;;;;;;4.10;3.70;;;24.10;45.40;;;;;;5129417;27;45289;-70
2022/09/02 01:33:16;;;;;;;5.40;3.70;;;24.10;45.40;;;;;;5129295;27;45312;-70
2022/09/02 01:35:42;;;;;;;3.80;3.30;;;24.10;45.90;;;;;;5128475;27;46669;-69
2022/09/02 01:38:09;;;;;;;3.92;3.53;;;24.10;45.30;;;;;;5128562;27;45228;-69
2022/09/02 01:40:38;;;;;;;4.75;3.67;;;24.10;45.30;;;;;;5126423;27;45204;-70
2022/09/02 01:43:07;;;;;;;4.45;3.47;;;24.00;45.50;;;;;;5126284;27;45376;-69
2022/09/02 01:45:34;;;;;;;3.70;3.40;;;24.10;45.50;;;;;;5128652;27;47789;-70
2022/09/02 01:48:01;;;;;;;3.55;3.20;;;24.00;45.20;;;;;;5126164;27;45252;-70
2022/09/02 01:50:28;;;;;;;4.25;3.28;;;24.00;45.40;;;;;;5128943;27;45301;-70
2022/09/02 01:52:55;;;;;;;3.20;2.90;;;24.00;45.30;;;;;;5128363;27;45339;-70
2022/09/02 01:55:22;;;;;;;4.45;3.30;;;24.00;45.30;;;;;;5128460;27;46348;-70
2022/09/02 01:57:50;;;;;;;3.50;3.20;;;23.90;45.40;;;;;;5128599;27;45326;-70
2022/09/02 02:00:17;;;;;;;3.85;3.22;;;24.00;46.00;;;;;;5128686;27;45125;-70
2022/09/02 02:02:44;;;;;;;3.15;2.85;;;24.00;45.30;;;;;;5128924;27;45454;-70
2022/09/02 02:05:12;;;;;;;3.50;3.20;;;23.90;45.30;;;;;;5128570;27;46510;-69
2022/09/02 02:07:41;;;;;;;3.30;2.80;;;24.00;45.30;;;;;;5128477;27;45239;-71
2022/09/02 02:10:09;;;;;;;3.83;3.15;;;23.90;45.20;;;;;;5128501;27;45341;-70
2022/09/02 02:12:35;;;;;;;3.28;2.97;;;23.90;45.20;;;;;;5128687;27;45404;-70
2022/09/02 02:15:04;;;;;;;3.42;2.75;;;23.90;45.30;;;;;;5128234;27;45228;-71
2022/09/02 02:17:31;;;;;;;3.25;2.95;;;23.90;45.80;;;;;;5128422;27;45169;-70
2022/09/02 02:19:58;;;;;;;4.03;2.55;;;23.90;45.20;;;;;;5148649;27;45239;-70
2022/09/02 02:22:26;;;;;;;2.67;2.47;;;23.90;45.20;;;;;;5170000;27;45460;-69
2022/09/02 02:24:52;;;;;;;4.28;3.08;;;23.90;45.20;;;;;;5152660;27;45679;-69
2022/09/02 02:27:19;;;;;;;2.72;2.53;;;23.90;45.20;;;;;;5155648;27;45356;-70
2022/09/02 02:29:46;;;;;;;2.63;2.42;;;23.90;45.20;;;;;;5170136;27;45282;-69
2022/09/02 02:32:17;;;;;;;2.92;2.65;;;23.90;45.30;;;;;;5170227;27;45246;-70
2022/09/02 02:34:44;;;;;;;4.18;2.60;;;23.80;45.10;;;;;;5169946;27;45950;-70
2022/09/02 02:37:11;;;;;;;2.97;2.63;;;23.90;45.80;;;;;;5169473;27;45263;-71
2022/09/02 02:39:38;;;;;;;2.55;2.35;;;23.90;45.20;;;;;;5169853;27;45353;-70
2022/09/02 02:42:06;;;;;;;2.55;2.35;;;23.80;45.80;;;;;;5169964;27;45442;-70
2022/09/02 02:44:35;;;;;;;2.50;2.30;;;23.80;45.10;;;;;;5169618;27;46380;-70
2022/09/02 02:47:01;;;;;;;3.92;2.20;;;23.80;45.70;;;;;;5169753;27;45188;-70
2022/09/02 02:49:30;;;;;;;2.67;2.47;;;23.80;45.40;;;;;;5169722;27;45233;-70
2022/09/02 02:51:56;;;;;;;3.17;2.78;;;23.80;45.10;;;;;;5169949;27;45293;-71
2022/09/02 02:54:23;;;;;;;2.35;2.15;;;23.70;45.20;;;;;;5169347;27;45371;-69
2022/09/02 02:56:50;;;;;;;2.75;2.40;;;23.70;45.10;;;;;;5169640;27;45432;-70
2022/09/02 02:59:17;;;;;;;2.60;2.40;;;23.70;45.20;;;;;;5169692;27;45279;-71
2022/09/02 03:01:44;;;;;;;2.13;2.03;;;23.70;45.10;;;;;;5169756;27;45250;-70
2022/09/02 03:04:10;;;;;;;2.45;2.25;;;23.70;45.20;;;;;;5168192;27;46587;-70
2022/09/02 03:06:39;;;;;;;2.85;2.05;;;23.70;45.30;;;;;;5169286;27;45301;-69
2022/09/02 03:09:05;;;;;;;2.40;2.20;;;23.70;45.30;;;;;;5169453;27;45267;-69
2022/09/02 03:11:32;;;;;;;2.42;2.22;;;23.60;45.80;;;;;;5169510;27;45176;-69
2022/09/02 03:13:59;;;;;;;2.50;2.30;;;23.70;45.30;;;;;;5169243;27;45232;-70
2022/09/02 03:16:26;;;;;;;2.15;1.95;;;23.60;45.20;;;;;;5169150;27;45290;-70
2022/09/02 03:18:53;;;;;;;2.20;2.00;;;23.60;45.30;;;;;;5168731;27;45289;-70
2022/09/02 03:21:20;;;;;;;2.17;2.08;;;23.60;45.20;;;;;;5148668;27;45379;-70
2022/09/02 03:23:48;;;;;;;2.20;2.00;;;23.60;45.30;;;;;;5147968;27;45487;-71
2022/09/02 03:26:16;;;;;;;2.60;2.40;;;23.60;45.20;;;;;;5148034;27;45344;-70
2022/09/02 03:28:43;;;;;;;2.00;1.90;;;23.50;45.20;;;;;;5148320;27;45231;-70
2022/09/02 03:31:14;;;;;;;2.38;2.08;;;23.50;45.30;;;;;;5148162;27;45396;-70
2022/09/02 03:33:41;;;;;;;2.40;2.20;;;23.50;45.30;;;;;;5147872;27;45724;-70
2022/09/02 03:36:08;;;;;;;2.45;2.15;;;23.50;45.20;;;;;;5148130;27;45290;-70
2022/09/02 03:38:35;;;;;;;2.70;2.33;;;23.50;45.20;;;;;;5161024;27;45260;-70
2022/09/02 03:41:03;;;;;;;4.07;1.85;;;23.50;45.20;;;;;;5169257;27;45226;-69
2022/09/02 03:43:30;;;;;;;2.30;2.10;;;23.50;45.20;;;;;;5168790;27;45296;-70
2022/09/02 03:45:57;;;;;;;3.10;2.15;;;23.50;45.20;;;;;;5168872;27;45321;-70
2022/09/02 03:48:24;;;;;;;1.90;1.80;;;23.50;45.20;;;;;;5169039;27;45295;-70
2022/09/02 03:50:50;;;;;;;2.15;2.00;;;23.50;45.10;;;;;;5169109;27;45401;-70
2022/09/02 03:53:17;;;;;;;2.40;2.10;;;23.40;45.20;;;;;;5168844;27;45482;-71
2022/09/02 03:55:44;;;;;;;2.15;1.98;;;23.40;45.80;;;;;;5168267;27;45174;-70
2022/09/02 03:58:13;;;;;;;2.13;1.92;;;23.40;45.10;;;;;;5168953;27;45239;-70
2022/09/02 04:00:40;;;;;;;2.30;2.10;;;23.40;45.20;;;;;;5169012;27;45289;-70
2022/09/02 04:03:07;;;;;;;2.00;1.90;;;23.40;45.10;;;;;;5168733;27;45194;-70
2022/09/02 04:05:34;;;;;;;2.00;1.80;;;23.40;45.20;;;;;;5168672;27;45233;-71
2022/09/02 04:08:01;;;;;;;2.15;1.95;;;23.40;45.10;;;;;;5168924;27;45372;-71
2022/09/02 04:10:28;;;;;;;1.67;1.58;;;23.40;45.20;;;;;;5168882;27;45346;-69
2022/09/02 04:12:54;;;;;;;1.80;1.70;;;23.30;45.00;;;;;;5168772;27;46425;-70
2022/09/02 04:15:24;;;;;;;1.88;1.77;;;23.30;45.10;;;;;;5170222;27;45185;-70
2022/09/02 04:17:50;;;;;;;2.90;1.90;;;23.30;45.00;;;;;;5172206;27;45284;-70
2022/09/02 04:20:17;;;;;;;2.28;2.00;;;23.30;45.10;;;;;;5159409;27;45313;-71
2022/09/02 04:22:44;;;;;;;2.20;2.00;;;23.30;45.10;;;;;;5151024;27;46424;-69
2022/09/02 04:25:11;;;;;;;2.03;1.85;;;23.30;45.10;;;;;;5160237;27;45248;-70
2022/09/02 04:27:38;;;;;;;2.00;1.80;;;23.30;45.10;;;;;;5131982;27;45221;-70
2022/09/02 04:30:06;;;;;;;2.15;2.05;;;23.20;45.00;;;;;;5134478;27;45371;-70
2022/09/02 04:32:34;;;;;;;1.92;1.80;;;23.20;45.10;;;;;;5150685;27;45445;-69
2022/09/02 04:35:01;;;;;;;1.98;1.88;;;23.20;45.10;;;;;;5150835;27;45233;-70
2022/09/02 04:37:27;;;;;;;1.85;1.75;;;23.20;45.10;;;;;;5150591;27;45272;-70
2022/09/02 04:39:56;;;;;;;1.85;1.75;;;23.20;45.20;;;;;;5150587;27;45230;-70
2022/09/02 04:42:24;;;;;;;1.90;1.77;;;23.20;45.20;;;;;;5150138;27;45374;-70
2022/09/02 04:44:52;;;;;;;1.88;1.77;;;23.20;45.20;;;;;;5150855;27;45423;-70
2022/09/02 04:47:19;;;;;;;1.90;1.67;;;23.20;45.20;;;;;;5150700;27;45180;-70
2022/09/02 04:49:47;;;;;;;2.10;2.00;;;23.10;45.20;;;;;;5150668;27;45328;-71
2022/09/02 04:52:15;;;;;;;2.25;2.05;;;23.10;45.30;;;;;;5150248;27;46396;-70
2022/09/02 04:54:41;;;;;;;2.05;1.85;;;23.10;45.30;;;;;;5150612;27;45358;-70
2022/09/02 04:57:08;;;;;;;1.58;1.48;;;23.10;45.30;;;;;;5150578;27;45275;-70
2022/09/02 04:59:35;;;;;;;1.65;1.55;;;23.10;45.40;;;;;;5150813;27;45243;-70
2022/09/02 05:02:02;;;;;;;1.77;1.67;;;23.10;45.40;;;;;;5150177;27;46942;-70
2022/09/02 05:04:30;;;;;;;1.58;1.48;;;23.10;45.40;;;;;;5150241;27;45252;-71
2022/09/02 05:07:00;;;;;;;1.67;1.55;;;23.10;45.40;;;;;;5150539;27;45298;-69
2022/09/02 05:09:27;;;;;;;1.63;1.52;;;23.00;45.40;;;;;;5150447;27;45549;-69
2022/09/02 05:11:56;;;;;;;1.70;1.60;;;23.00;45.40;;;;;;5149952;27;47570;-69
2022/09/02 05:14:23;;;;;;;1.90;1.80;;;23.00;45.40;;;;;;5150085;27;45222;-70
2022/09/02 05:16:52;;;;;;;1.50;1.40;;;23.00;45.40;;;;;;5150179;27;45180;-70
2022/09/02 05:19:20;;;;;;;2.03;1.42;;;23.00;45.40;;;;;;5150100;27;45237;-70
2022/09/02 05:21:47;;;;;;;1.80;1.70;;;23.00;45.40;;;;;;5150006;27;47572;-70
2022/09/02 05:24:16;;;;;;;1.73;1.63;;;23.00;45.50;;;;;;5149821;27;45181;-70
2022/09/02 05:26:43;;;;;;;1.67;1.58;;;23.00;45.50;;;;;;5140427;27;45442;-70
2022/09/02 05:29:10;;;;;;;1.45;1.35;;;23.00;45.50;;;;;;5129067;27;45439;-69
2022/09/02 05:31:37;;;;;;;1.60;1.50;;;22.90;45.50;;;;;;5128788;27;45324;-70
2022/09/02 05:34:04;;;;;;;1.70;1.60;;;22.90;45.50;;;;;;5129040;27;45126;-70
2022/09/02 05:36:31;;;;;;;2.38;1.67;;;22.90;45.50;;;;;;5128797;27;45203;-70
2022/09/02 05:38:58;;;;;;;2.05;1.60;;;22.90;45.50;;;;;;5128813;27;45468;-70
2022/09/02 05:41:26;;;;;;;2.50;1.70;;;22.90;45.50;;;;;;5128851;27;45210;-70
2022/09/02 05:43:54;;;;;;;1.60;1.50;;;22.90;45.50;;;;;;5128999;27;45160;-71
2022/09/02 05:46:22;;;;;;;2.13;1.55;;;22.90;45.50;;;;;;5129115;27;45192;-70
2022/09/02 05:49:07;;;;;;;2.13;1.92;;;22.90;45.60;;;;;;5128972;27;45449;-70
2022/09/02 05:51:40;;;;;;;2.10;1.70;;;22.90;45.60;;;;;;5128822;27;48001;-71
2022/09/02 05:54:07;;;;;;;2.08;1.77;;;22.90;45.60;;;;;;5128530;27;45180;-72
2022/09/02 05:56:37;;;;;;;1.65;1.55;;;22.90;45.70;;;;;;5128626;27;45349;-71
2022/09/02 05:59:05;;;;;;;1.45;1.38;;;22.90;45.70;;;;;;5129017;27;45477;-71
2022/09/02 06:01:32;;;;;;;1.98;1.58;;;22.90;45.60;;;;;;5128419;27;46643;-71
2022/09/02 06:04:01;;;;;;;3.35;1.90;;;22.90;45.70;;;;;;5128653;27;45260;-71
2022/09/02 06:06:28;;;;;;;1.60;1.50;;;22.90;45.70;;;;;;5128583;27;45314;-71
2022/09/02 06:08:55;;;;;;;1.65;1.55;;;22.80;45.60;;;;;;5128966;27;45528;-71
2022/09/02 06:11:21;;;;;;;1.70;1.60;;;22.80;45.60;;;;;;5128397;27;46281;-70
2022/09/02 06:13:50;;;;;;;1.75;1.50;;;22.80;45.60;;;;;;5128616;27;45530;-69
2022/09/02 06:16:18;;;;;;;2.45;1.70;;;22.80;45.60;;;;;;5128565;27;45260;-70
2022/09/02 06:18:45;;;;;;;2.08;1.70;;;22.80;45.60;;;;;;5128347;27;45211;-69
2022/09/02 06:21:13;;;;;;;2.28;1.60;;;22.80;45.80;;;;;;5148862;27;46955;-70
2022/09/02 06:23:39;;;;;;;1.85;1.73;;;22.80;45.60;;;;;;5148758;27;45356;-69
2022/09/02 06:26:06;;;;;;;2.25;1.60;;;22.80;45.70;;;;;;5142754;27;45448;-70
2022/09/02 06:28:33;;;;;;;1.67;1.58;;;22.80;46.30;;;;;;5128593;27;45411;-69
2022/09/02 06:31:06;;;;;;;1.50;1.40;;;22.80;45.60;;;;;;5128039;27;45225;-70
2022/09/02 06:33:32;;;;;;;1.98;1.77;;;22.80;45.80;;;;;;5127867;27;45436;-69
2022/09/02 06:35:59;;;;;;;1.65;1.52;;;22.80;45.70;;;;;;5128126;27;45306;-70
2022/09/02 06:38:26;;;;;;;1.60;1.50;;;22.80;45.80;;;;;;5127858;27;45339;-70
2022/09/02 06:40:54;;;;;;;1.60;1.50;;;22.80;45.70;;;;;;5127794;27;46457;-69
2022/09/02 06:43:21;;;;;;;1.70;1.60;;;22.80;45.80;;;;;;5127753;27;45285;-70
2022/09/02 06:45:47;;;;;;;1.70;1.60;;;22.80;45.70;;;;;;5127902;27;45475;-70
2022/09/02 06:48:15;;;;;;;1.60;1.50;;;22.80;45.80;;;;;;5128104;27;45372;-70
2022/09/02 06:50:45;;;;;;;2.00;1.90;;;22.80;45.80;;;;;;5127419;27;46499;-70
2022/09/02 06:53:12;;;;;;;1.70;1.55;;;22.80;45.70;;;;;;5127479;27;45383;-70
2022/09/02 06:55:40;;;;;;;1.67;1.58;;;22.80;45.70;;;;;;5127576;27;45304;-70
2022/09/02 06:58:07;;;;;;;1.70;1.60;;;22.80;45.70;;;;;;5127665;27;45192;-70
2022/09/02 07:00:35;;;;;;;1.80;1.70;;;22.80;45.70;;;;;;5127370;27;45247;-70
2022/09/02 07:05:48;;;;;;;1.80;1.70;;;22.80;45.70;;;;;;5125073;27;45291;-69
2022/09/02 07:08:15;;;;;;;1.40;1.30;;;22.80;45.80;;;;;;5127810;27;45193;-69
2022/09/02 07:10:41;;;;;;;1.63;1.50;;;22.80;45.70;;;;;;5127249;27;46786;-69
2022/09/02 07:13:08;;;;;;;1.30;1.20;;;22.80;45.80;;;;;;5127266;27;45127;-69
2022/09/02 07:15:35;;;;;;;1.60;1.50;;;22.80;45.80;;;;;;5127214;27;45404;-69
2022/09/02 07:18:03;;;;;;;2.28;1.58;;;22.80;45.80;;;;;;5127276;27;45405;-69
2022/09/02 07:20:30;;;;;;;1.65;1.33;;;22.80;45.80;;;;;;5141804;27;45464;-69
2022/09/02 07:22:58;;;;;;;1.33;1.30;;;22.80;45.80;;;;;;5147893;27;45238;-68
2022/09/02 07:25:26;;;;;;;1.63;1.52;;;22.80;45.80;;;;;;5148207;27;45456;-69
2022/09/02 07:27:53;;;;;;;1.60;1.50;;;22.80;45.80;;;;;;5129831;27;45365;-69
2022/09/02 07:30:20;;;;;;;1.58;1.48;;;22.80;45.80;;;;;;5127064;27;45433;-69
2022/09/02 07:32:47;;;;;;;4.20;1.73;;;22.80;45.90;;;;;;5127373;27;45190;-69
2022/09/02 07:35:14;;;;;;;2.47;1.60;;;22.80;45.60;;;;;;5127499;27;45374;-69
2022/09/02 07:37:41;;;;;;;2.38;1.58;;;22.80;44.80;;;;;;5127189;27;45291;-69
2022/09/02 07:40:11;;;;;;;2.58;1.50;;;22.80;45.10;;;;;;5126800;27;46487;-69
2022/09/02 07:42:38;;;;;;;1.55;1.40;;;22.70;44.80;;;;;;5126868;27;45217;-70
2022/09/02 07:45:06;;;;;;;1.60;1.50;;;22.70;44.80;;;;;;5127204;27;45287;-69
2022/09/02 07:47:33;;;;;;;5.28;1.52;;;22.70;45.00;;;;;;5127241;27;45270;-69
2022/09/02 07:50:00;;;;;;;1.65;1.38;;;22.60;45.00;;;;;;5126329;27;45475;-70
2022/09/02 07:52:27;;;;;;;2.78;1.70;;;22.60;45.50;;;;;;5130561;27;45180;-70
2022/09/02 07:54:54;;;;;;;3.55;1.90;;;22.60;46.00;;;;;;5130508;27;45229;-70
2022/09/02 07:57:22;;;;;;;3.17;1.60;;;22.60;46.30;;;;;;5130449;27;45298;-70
2022/09/02 07:59:49;;;;;;;4.07;1.90;;;22.60;46.60;;;;;;5130414;27;45248;-69
2022/09/02 08:02:16;;;;;;;3.40;1.70;;;22.60;46.80;;;;;;5130621;27;45507;-70
2022/09/02 08:04:43;;;;;;;2.85;1.90;;;22.60;47.00;;;;;;5130350;27;45326;-70
2022/09/02 08:07:10;;;;;;;3.13;1.77;;;22.60;47.10;;;;;;5130776;27;45213;-69
2022/09/02 08:09:37;;;;;;;3.65;1.70;;;22.60;47.10;;;;;;5130463;27;45411;-71
2022/09/02 08:12:05;;;;;;;2.30;1.70;;;22.60;47.00;;;;;;5130320;27;45328;-69
2022/09/02 08:14:33;;;;;;;2.47;2.10;;;22.60;47.70;;;;;;5130467;27;45250;-70
2022/09/02 08:17:00;;;;;;;1.85;1.70;;;22.60;47.20;;;;;;5130324;27;45469;-70
2022/09/02 08:19:27;;;;;;;4.50;2.13;;;22.60;47.00;;;;;;5135665;27;45366;-70
2022/09/02 08:21:54;;;;;;;1.75;1.63;;;22.60;46.90;;;;;;5151101;27;45386;-70
2022/09/02 08:24:21;;;;;;;2.75;1.80;;;22.60;46.90;;;;;;5150955;27;45350;-70
2022/09/02 08:26:47;;;;;;;1.83;1.70;;;22.60;46.80;;;;;;5151033;27;45177;-69
2022/09/02 08:29:14;;;;;;;2.03;1.70;;;22.60;46.60;;;;;;5150973;27;45236;-70
2022/09/02 08:31:42;;;;;;;2.10;1.85;;;22.70;46.80;;;;;;5150500;27;45346;-71
2022/09/02 08:34:09;;;;;;;2.47;1.58;;;22.70;46.90;;;;;;5150891;27;45292;-72
2022/09/02 08:36:37;;;;;;;4.30;1.77;;;22.70;46.80;;;;;;5151137;27;45179;-72
2022/09/02 08:39:04;;;;;;;3.65;1.83;;;22.70;46.70;;;;;;5167356;27;45545;-72
2022/09/02 08:41:33;;;;;;;3.63;1.75;;;22.70;47.40;;;;;;5171731;27;45278;-71
2022/09/02 08:44:00;;;;;;;2.70;1.60;;;22.80;46.80;;;;;;5171835;27;45230;-71
2022/09/02 08:46:28;;;;;;;1.90;1.80;;;22.80;47.30;;;;;;5171876;27;45239;-72
2022/09/02 08:48:58;;;;;;;1.83;1.67;;;22.80;46.60;;;;;;5171154;27;46678;-72
2022/09/02 08:51:28;;;;;;;2.38;1.73;;;22.80;46.50;;;;;;5171072;27;45207;-72
2022/09/02 08:53:58;;;;;;;1.95;1.60;;;22.80;46.00;;;;;;5171473;27;45259;-72
2022/09/02 08:56:27;;;;;;;3.20;1.83;;;22.80;46.40;;;;;;5171811;27;45398;-71
2022/09/02 08:58:55;;;;;;;2.78;1.60;;;22.90;46.40;;;;;;5171451;27;46309;-72
2022/09/02 09:01:27;;;;;;;4.18;1.90;;;22.90;46.20;;;;;;5170263;27;45321;-68
2022/09/02 09:04:06;;;;;;;2.50;1.70;;;22.90;46.10;;;;;;5171420;27;45134;-71
2022/09/02 09:06:37;;;;;;;2.25;1.65;;;22.90;46.00;;;;;;5171560;27;45334;-71
2022/09/02 09:09:06;;;;;;;1.70;1.60;;;23.00;46.00;;;;;;5171270;27;46626;-71
2022/09/02 09:11:37;;;;;;;3.22;1.67;;;23.00;46.00;;;;;;5171169;27;45386;-71
2022/09/02 09:14:10;;;;;;;2.78;1.80;;;23.00;45.90;;;;;;5171272;27;45176;-71
2022/09/02 09:16:39;;;;;;;3.20;1.70;;;23.00;45.80;;;;;;5171577;27;45181;-72
2022/09/02 09:19:11;;;;;;;2.00;1.80;;;23.10;45.90;;;;;;5168267;27;46521;-71
2022/09/02 09:21:39;;;;;;;1.70;1.60;;;23.10;45.80;;;;;;5149743;27;45279;-72
2022/09/02 09:24:14;;;;;;;1.65;1.50;;;23.10;45.60;;;;;;5152746;27;45250;-71
2022/09/02 09:26:40;;;;;;;1.85;1.75;;;23.10;45.30;;;;;;5155524;27;45236;-71
2022/09/02 09:29:07;;;;;;;1.60;1.50;;;23.20;45.30;;;;;;5149890;27;46789;-70
2022/09/02 09:31:34;;;;;;;1.55;1.45;;;23.20;45.10;;;;;;5166633;27;45321;-71
2022/09/02 09:34:02;;;;;;;2.08;1.50;;;23.20;45.10;;;;;;5170944;27;45188;-71
2022/09/02 09:36:48;;;;;;;2.65;1.60;;;23.30;45.10;;;;;;5171179;27;45548;-71
2022/09/02 09:39:19;;;;;;;2.60;1.70;;;23.30;44.90;;;;;;5170265;27;46351;-71
2022/09/02 09:41:46;;;;;;;1.75;1.60;;;23.30;45.00;;;;;;5170806;27;45187;-71
2022/09/02 09:44:37;;;;;;;4.15;1.77;;;23.40;45.00;;;;;;5170772;27;45273;-71
2022/09/02 09:47:05;;;;;;;3.17;1.80;;;23.40;45.10;;;;;;5163637;27;45360;-71
2022/09/02 09:49:33;;;;;;;1.75;1.38;;;23.40;44.80;;;;;;5170853;27;46508;-71
2022/09/02 09:52:01;;;;;;;1.92;1.42;;;23.50;44.80;;;;;;5170673;27;45254;-71
2022/09/02 09:54:28;;;;;;;2.50;1.77;;;23.40;44.10;;;;;;5170630;27;45315;-71
2022/09/02 09:56:54;;;;;;;1.65;1.50;;;23.50;44.70;;;;;;5170504;27;45315;-72
2022/09/02 09:59:41;;;;;;;2.55;1.55;;;23.50;44.50;;;;;;5170376;27;45199;-71
2022/09/02 10:02:13;;;;;;;1.42;1.33;;;23.60;44.30;;;;;;5170564;27;45321;-71
2022/09/02 10:04:40;;;;;;;2.05;1.60;;;23.60;43.90;;;;;;5170394;27;45294;-71
2022/09/02 10:07:09;;;;;;;1.70;1.60;;;23.60;43.90;;;;;;5171024;27;45511;-71
2022/09/02 10:09:36;;;;;;;1.80;1.60;;;23.70;43.90;;;;;;5170326;27;45289;-71
2022/09/02 10:12:04;;;;;;;1.73;1.52;;;23.80;43.80;;;;;;5170435;27;45370;-71
2022/09/02 10:14:34;;;;;;;2.70;1.60;;;23.80;43.70;;;;;;5169569;27;45358;-73
2022/09/02 10:17:06;;;;;;;1.85;1.60;;;23.90;43.70;;;;;;5170598;27;45453;-71
2022/09/02 10:19:36;;;;;;;1.45;1.35;;;23.90;43.50;;;;;;5163559;27;45388;-71
2022/09/02 10:22:39;;;;;;;1.63;1.52;;;23.90;43.30;;;;;;5149298;27;45215;-72
2022/09/02 10:25:10;;;;;;;1.65;1.45;;;24.00;43.50;;;;;;5107909;27;45341;-72
2022/09/02 10:27:41;;;;;;;1.45;1.35;;;24.00;43.60;;;;;;5144863;27;45438;-71
2022/09/02 10:30:08;;;;;;;2.45;1.40;;;24.10;43.50;;;;;;5152572;27;45367;-72
2022/09/02 10:32:45;;;;;;;2.45;1.58;;;24.20;43.20;;;;;;5169744;27;45264;-71
2022/09/02 10:35:14;;;;;;;1.85;1.52;;;24.20;43.10;;;;;;5170124;27;45321;-71
2022/09/02 10:37:53;;;;;;;1.60;1.50;;;24.20;42.70;;;;;;5170103;27;45282;-71
2022/09/02 10:40:24;;;;;;;2.55;1.70;;;24.30;43.00;;;;;;5169853;27;45333;-72
2022/09/02 10:42:58;;;;;;;2.50;1.42;;;24.30;42.30;;;;;;5169963;27;45260;-72
2022/09/02 10:45:30;;;;;;;1.42;1.33;;;24.30;42.70;;;;;;5170448;27;45194;-72
2022/09/02 10:48:11;;;;;;;2.72;1.38;;;24.40;42.40;;;;;;5171478;27;45260;-72
2022/09/02 10:50:40;;;;;;;1.40;1.30;;;24.40;42.10;;;;;;5170750;27;45463;-71
2022/09/02 10:53:48;;;;;;;1.58;1.30;;;24.50;42.50;;;;;;5169786;27;45290;-72
2022/09/02 10:56:17;;;;;;;1.63;1.20;;;24.60;42.40;;;;;;5085360;28;45503;-71
2022/09/02 10:58:47;;;;;;;2.45;1.45;;;24.60;42.20;;;;;;5085774;28;45348;-71
2022/09/02 11:01:18;;;;;;;1.38;1.27;;;24.70;41.70;;;;;;5124644;27;47468;-70
2022/09/02 11:03:58;;;;;;;1.27;1.17;;;24.70;42.00;;;;;;5170877;27;45242;-71
2022/09/02 11:06:27;;;;;;;1.55;1.45;;;24.80;42.50;;;;;;5169630;27;45086;-69
2022/09/02 11:08:56;;;;;;;1.30;1.20;;;24.90;41.20;;;;;;5171839;27;45423;-68
2022/09/02 11:11:24;;;;;;;1.27;1.15;;;24.80;41.00;;;;;;5169927;27;45243;-71
2022/09/02 11:13:58;;;;;;;1.70;1.60;;;24.80;41.40;;;;;;5170255;27;45243;-71
2022/09/02 11:16:27;;;;;;;1.52;1.40;;;24.90;41.10;;;;;;5170642;27;45209;-72
2022/09/02 11:18:56;;;;;;;1.65;1.55;;;25.00;41.60;;;;;;5172495;27;44772;-71
2022/09/02 11:21:45;;;;;;;1.60;1.50;;;25.00;41.00;;;;;;5169980;27;46789;-71
2022/09/02 11:24:14;;;;;;;1.65;1.55;;;25.10;41.20;;;;;;5168192;27;45327;-71
2022/09/02 11:26:44;;;;;;;1.50;1.40;;;25.20;40.90;;;;;;5151197;27;45331;-71
2022/09/02 11:29:12;;;;;;;3.70;1.40;;;25.30;40.80;;;;;;5132048;27;45427;-71
2022/09/02 11:31:42;;;;;;;1.50;1.40;;;25.30;41.00;;;;;;5149109;27;46799;-71
2022/09/02 11:34:16;;;;;;;1.70;1.58;;;25.40;40.80;;;;;;5152740;27;45342;-71
2022/09/02 11:36:43;;;;;;;1.50;1.40;;;25.40;41.70;;;;;;5152756;27;45222;-72
2022/09/02 11:39:11;;;;;;;2.53;1.50;;;25.50;41.50;;;;;;5152653;27;45398;-71
2022/09/02 11:42:00;;;;;;;3.33;1.85;;;25.60;41.30;;;;;;5152557;27;46346;-71
2022/09/02 11:44:59;;;;;;;5.90;1.60;;;25.60;40.60;;;;;;5152400;27;45260;-71
2022/09/02 11:48:01;;;;;;;1.75;1.60;;;25.70;41.30;;;;;;5133672;27;45523;-71
2022/09/02 11:50:37;;;;;;;1.63;1.52;;;25.80;41.10;;;;;;5152265;27;45423;-71
2022/09/02 11:53:12;;;;;;;1.98;1.60;;;25.80;40.50;;;;;;5151152;27;46388;-71
2022/09/02 11:55:40;;;;;;;1.40;1.30;;;25.90;41.10;;;;;;5151303;27;45270;-71
2022/09/02 11:58:08;;;;;;;1.58;1.48;;;26.00;41.00;;;;;;5151955;27;45332;-71
2022/09/02 12:00:35;;;;;;;3.17;1.65;;;26.00;40.60;;;;;;5152042;27;45307;-72
2022/09/02 12:03:12;;;;;;;1.67;1.58;;;26.10;40.60;;;;;;5151485;27;45280;-71
2022/09/02 12:05:50;;;;;;;1.50;1.40;;;26.10;40.20;;;;;;5151952;27;45267;-71
2022/09/02 12:09:09;;;;;;;1.88;1.65;;;26.20;39.90;;;;;;5151652;27;45330;-71
2022/09/02 12:11:41;;;;;;;2.00;1.42;;;26.10;39.70;;;;;;5151867;27;45415;-70
2022/09/02 12:14:12;;;;;;;1.70;1.60;;;26.20;40.80;;;;;;5151514;27;45703;-71
2022/09/02 12:17:01;;;;;;;1.67;1.33;;;26.40;41.10;;;;;;5151595;27;45208;-72
2022/09/02 12:19:41;;;;;;;1.95;1.40;;;26.50;40.50;;;;;;5151094;27;45399;-71
2022/09/02 12:22:27;;;;;;;1.33;1.23;;;26.40;40.10;;;;;;5151377;27;45115;-71
2022/09/02 12:24:55;;;;;;;1.42;1.33;;;26.40;39.80;;;;;;5151069;27;45235;-71
2022/09/02 12:27:26;;;;;;;1.25;1.15;;;26.50;39.80;;;;;;5136989;27;45453;-71
2022/09/02 12:29:54;;;;;;;1.40;1.30;;;26.60;40.20;;;;;;5131132;27;45111;-71
2022/09/02 12:33:03;;;;;;;1.50;1.40;;;26.70;40.30;;;;;;5130451;27;45168;-71
2022/09/02 12:35:33;;;;;;;1.58;1.30;;;26.80;39.90;;;;;;5090648;27;47329;-71
2022/09/02 12:38:25;;;;;;;2.28;1.50;;;26.90;39.60;;;;;;5130022;27;45333;-71
2022/09/02 12:40:55;;;;;;;1.40;1.27;;;26.90;39.30;;;;;;5131508;27;45138;-71
2022/09/02 12:43:25;;;;;;;1.55;1.45;;;26.90;39.10;;;;;;5130206;27;45232;-71
2022/09/02 12:45:55;;;;;;;2.10;1.52;;;26.90;39.10;;;;;;5130196;27;45466;-71
2022/09/02 12:48:24;;;;;;;1.40;1.30;;;26.90;39.10;;;;;;5130058;27;45341;-72
2022/09/02 12:50:54;;;;;;;1.20;1.20;;;27.00;39.40;;;;;;5130117;27;45260;-71
2022/09/02 12:53:33;;;;;;;1.13;1.13;;;27.10;39.70;;;;;;5130468;27;45193;-71
2022/09/02 12:56:03;;;;;;;2.38;1.52;;;27.20;39.70;;;;;;5129313;27;45482;-71
2022/09/02 12:58:32;;;;;;;2.22;1.40;;;27.30;40.00;;;;;;5129829;27;45223;-70
2022/09/02 13:01:12;;;;;;;4.07;1.50;;;27.30;39.20;;;;;;5129659;27;45303;-72
2022/09/02 13:04:15;;;;;;;2.03;1.60;;;27.40;39.40;;;;;;5129749;27;45178;-71